LML weather

Lae Island Airport
Lae Island, Lae, Marshall Islands

Public forecast

Using degrees Celsius for public forecast. Weather courtesy of forecast.io.

METAR (pilot weather report)

Closest report is Bucholz Army Air Field, 87.9 nm (162.7 km) E. Retrieved 2019/07/19 07:00 UTC (45 minutes ago):

PKWA 190700Z COR 06003KT 10SM SCT023 29/24 A2979 RMK AO2A T02940239

TAF (pilot weather forecast)

Closest forecast is Bucholz Army Air Field, 87.9 nm (162.7 km) E. Retrieved 2019/07/19 06:27 UTC (1 hour ago):

TAF TAF PKWA 190520Z 1906/2006 07006KT P6SM SCT022